sensor_id;sensor_type;location;lat;lon;timestamp;P1;durP1;ratioP1;P2;durP2;ratioP2
45522;SDS011;31254;51.680;5.394;2023-02-03T00:01:56;10.20;;;2.33;;
45522;SDS011;31254;51.680;5.394;2023-02-03T00:04:22;17.13;;;2.13;;
45522;SDS011;31254;51.680;5.394;2023-02-03T00:06:49;14.43;;;2.38;;
45522;SDS011;31254;51.680;5.394;2023-02-03T00:09:18;12.77;;;2.28;;
45522;SDS011;31254;51.680;5.394;2023-02-03T00:11:46;12.98;;;2.50;;
45522;SDS011;31254;51.680;5.394;2023-02-03T00:14:12;15.60;;;2.53;;
45522;SDS011;31254;51.680;5.394;2023-02-03T00:16:39;10.18;;;2.30;;
45522;SDS011;31254;51.680;5.394;2023-02-03T00:19:06;14.88;;;2.55;;
45522;SDS011;31254;51.680;5.394;2023-02-03T00:21:32;14.52;;;2.83;;
45522;SDS011;31254;51.680;5.394;2023-02-03T00:23:59;12.35;;;2.50;;
45522;SDS011;31254;51.680;5.394;2023-02-03T00:26:25;12.93;;;2.05;;
45522;SDS011;31254;51.680;5.394;2023-02-03T00:28:54;10.98;;;1.88;;
45522;SDS011;31254;51.680;5.394;2023-02-03T00:31:23;14.85;;;2.17;;
45522;SDS011;31254;51.680;5.394;2023-02-03T00:33:54;9.10;;;1.77;;
45522;SDS011;31254;51.680;5.394;2023-02-03T00:36:22;13.50;;;2.85;;
45522;SDS011;31254;51.680;5.394;2023-02-03T00:38:49;10.55;;;2.10;;
45522;SDS011;31254;51.680;5.394;2023-02-03T00:41:16;13.65;;;2.15;;
45522;SDS011;31254;51.680;5.394;2023-02-03T00:43:44;11.05;;;2.22;;
45522;SDS011;31254;51.680;5.394;2023-02-03T00:46:16;9.55;;;1.90;;
45522;SDS011;31254;51.680;5.394;2023-02-03T00:48:42;8.82;;;1.65;;
45522;SDS011;31254;51.680;5.394;2023-02-03T00:51:09;13.45;;;1.95;;
45522;SDS011;31254;51.680;5.394;2023-02-03T00:53:36;12.07;;;2.05;;
45522;SDS011;31254;51.680;5.394;2023-02-03T00:56:04;17.58;;;2.17;;
45522;SDS011;31254;51.680;5.394;2023-02-03T00:58:40;12.98;;;2.50;;
45522;SDS011;31254;51.680;5.394;2023-02-03T01:01:09;10.30;;;2.72;;
45522;SDS011;31254;51.680;5.394;2023-02-03T01:03:39;12.93;;;2.20;;
45522;SDS011;31254;51.680;5.394;2023-02-03T01:06:09;10.80;;;1.50;;
45522;SDS011;31254;51.680;5.394;2023-02-03T01:08:41;11.38;;;1.70;;
45522;SDS011;31254;51.680;5.394;2023-02-03T01:11:08;9.20;;;2.13;;
45522;SDS011;31254;51.680;5.394;2023-02-03T01:13:37;11.98;;;2.13;;
45522;SDS011;31254;51.680;5.394;2023-02-03T01:16:08;11.77;;;1.80;;
45522;SDS011;31254;51.680;5.394;2023-02-03T01:18:39;8.60;;;1.50;;
45522;SDS011;31254;51.680;5.394;2023-02-03T01:21:10;10.48;;;2.33;;
45522;SDS011;31254;51.680;5.394;2023-02-03T01:23:39;10.90;;;2.00;;
45522;SDS011;31254;51.680;5.394;2023-02-03T01:26:10;11.65;;;1.88;;
45522;SDS011;31254;51.680;5.394;2023-02-03T01:28:39;7.97;;;1.55;;
45522;SDS011;31254;51.680;5.394;2023-02-03T01:31:16;14.60;;;1.90;;
45522;SDS011;31254;51.680;5.394;2023-02-03T01:33:45;10.43;;;1.70;;
45522;SDS011;31254;51.680;5.394;2023-02-03T01:36:14;13.38;;;2.40;;
45522;SDS011;31254;51.680;5.394;2023-02-03T01:38:41;16.02;;;2.00;;
45522;SDS011;31254;51.680;5.394;2023-02-03T01:41:16;7.63;;;1.50;;
45522;SDS011;31254;51.680;5.394;2023-02-03T01:43:46;12.95;;;1.85;;
45522;SDS011;31254;51.680;5.394;2023-02-03T01:48:51;8.95;;;1.52;;
45522;SDS011;31254;51.680;5.394;2023-02-03T01:51:20;12.07;;;1.55;;
45522;SDS011;31254;51.680;5.394;2023-02-03T01:53:48;10.43;;;1.80;;
45522;SDS011;31254;51.680;5.394;2023-02-03T01:56:17;12.20;;;1.70;;
45522;SDS011;31254;51.680;5.394;2023-02-03T01:58:47;9.00;;;1.40;;
45522;SDS011;31254;51.680;5.394;2023-02-03T02:01:15;6.97;;;1.65;;
45522;SDS011;31254;51.680;5.394;2023-02-03T02:03:45;8.35;;;1.30;;
45522;SDS011;31254;51.680;5.394;2023-02-03T02:06:22;7.35;;;1.60;;
45522;SDS011;31254;51.680;5.394;2023-02-03T02:08:50;6.82;;;1.48;;
45522;SDS011;31254;51.680;5.394;2023-02-03T02:11:18;5.90;;;1.33;;
45522;SDS011;31254;51.680;5.394;2023-02-03T02:13:49;6.63;;;1.85;;
45522;SDS011;31254;51.680;5.394;2023-02-03T02:18:57;8.48;;;1.27;;
45522;SDS011;31254;51.680;5.394;2023-02-03T02:21:43;11.00;;;1.30;;
45522;SDS011;31254;51.680;5.394;2023-02-03T02:44:16;10.93;;;1.77;;
45522;SDS011;31254;51.680;5.394;2023-02-03T02:47:19;6.18;;;1.63;;
45522;SDS011;31254;51.680;5.394;2023-02-03T02:52:21;12.93;;;1.70;;
45522;SDS011;31254;51.680;5.394;2023-02-03T02:54:51;6.30;;;1.30;;
45522;SDS011;31254;51.680;5.394;2023-02-03T02:57:22;11.05;;;1.83;;
45522;SDS011;31254;51.680;5.394;2023-02-03T02:59:52;7.00;;;1.33;;
45522;SDS011;31254;51.680;5.394;2023-02-03T03:02:19;7.90;;;1.35;;
45522;SDS011;31254;51.680;5.394;2023-02-03T03:04:46;8.20;;;1.75;;
45522;SDS011;31254;51.680;5.394;2023-02-03T03:07:20;10.02;;;1.75;;
45522;SDS011;31254;51.680;5.394;2023-02-03T03:09:55;5.43;;;1.00;;
45522;SDS011;31254;51.680;5.394;2023-02-03T03:12:26;12.32;;;1.77;;
45522;SDS011;31254;51.680;5.394;2023-02-03T03:14:55;7.00;;;1.15;;
45522;SDS011;31254;51.680;5.394;2023-02-03T03:17:37;6.72;;;1.35;;
45522;SDS011;31254;51.680;5.394;2023-02-03T03:20:16;7.05;;;1.17;;
45522;SDS011;31254;51.680;5.394;2023-02-03T03:22:57;4.20;;;1.23;;
45522;SDS011;31254;51.680;5.394;2023-02-03T03:25:31;11.45;;;1.83;;
45522;SDS011;31254;51.680;5.394;2023-02-03T03:28:06;8.23;;;1.60;;
45522;SDS011;31254;51.680;5.394;2023-02-03T03:30:37;6.40;;;1.48;;
45522;SDS011;31254;51.680;5.394;2023-02-03T03:33:05;4.85;;;1.00;;
45522;SDS011;31254;51.680;5.394;2023-02-03T03:35:41;7.32;;;1.00;;
45522;SDS011;31254;51.680;5.394;2023-02-03T03:38:38;5.65;;;1.17;;
45522;SDS011;31254;51.680;5.394;2023-02-03T03:41:12;1.98;;;0.70;;
45522;SDS011;31254;51.680;5.394;2023-02-03T03:43:48;5.93;;;1.00;;
45522;SDS011;31254;51.680;5.394;2023-02-03T03:46:20;4.10;;;1.17;;
45522;SDS011;31254;51.680;5.394;2023-02-03T03:48:54;5.60;;;1.00;;
45522;SDS011;31254;51.680;5.394;2023-02-03T03:51:29;6.80;;;1.30;;
45522;SDS011;31254;51.680;5.394;2023-02-03T03:54:01;3.60;;;0.93;;
45522;SDS011;31254;51.680;5.394;2023-02-03T03:59:22;7.72;;;1.52;;
45522;SDS011;31254;51.680;5.394;2023-02-03T04:01:51;8.98;;;1.23;;
45522;SDS011;31254;51.680;5.394;2023-02-03T04:04:19;3.63;;;1.05;;
45522;SDS011;31254;51.680;5.394;2023-02-03T04:06:48;6.03;;;1.17;;
45522;SDS011;31254;51.680;5.394;2023-02-03T04:09:14;5.88;;;1.02;;
45522;SDS011;31254;51.680;5.394;2023-02-03T04:11:42;7.68;;;1.30;;
45522;SDS011;31254;51.680;5.394;2023-02-03T04:14:31;5.95;;;1.20;;
45522;SDS011;31254;51.680;5.394;2023-02-03T04:17:04;7.45;;;0.90;;
45522;SDS011;31254;51.680;5.394;2023-02-03T04:19:31;4.38;;;1.02;;
45522;SDS011;31254;51.680;5.394;2023-02-03T04:21:57;6.10;;;1.08;;
45522;SDS011;31254;51.680;5.394;2023-02-03T04:24:24;8.77;;;1.42;;
45522;SDS011;31254;51.680;5.394;2023-02-03T04:26:51;8.00;;;1.58;;
45522;SDS011;31254;51.680;5.394;2023-02-03T04:29:18;9.30;;;1.20;;
45522;SDS011;31254;51.680;5.394;2023-02-03T04:31:47;2.85;;;0.73;;
45522;SDS011;31254;51.680;5.394;2023-02-03T04:34:16;4.18;;;1.25;;
45522;SDS011;31254;51.680;5.394;2023-02-03T04:36:45;8.25;;;1.02;;
45522;SDS011;31254;51.680;5.394;2023-02-03T04:39:12;9.50;;;1.50;;
45522;SDS011;31254;51.680;5.394;2023-02-03T04:41:40;4.10;;;1.10;;
45522;SDS011;31254;51.680;5.394;2023-02-03T04:44:07;7.05;;;1.52;;
45522;SDS011;31254;51.680;5.394;2023-02-03T04:46:33;6.90;;;1.35;;
45522;SDS011;31254;51.680;5.394;2023-02-03T04:49:00;7.70;;;1.33;;
45522;SDS011;31254;51.680;5.394;2023-02-03T04:51:32;4.03;;;0.90;;
45522;SDS011;31254;51.680;5.394;2023-02-03T04:54:01;3.00;;;0.70;;
45522;SDS011;31254;51.680;5.394;2023-02-03T04:56:27;7.80;;;1.45;;
45522;SDS011;31254;51.680;5.394;2023-02-03T04:58:54;8.75;;;1.20;;
45522;SDS011;31254;51.680;5.394;2023-02-03T05:01:20;7.03;;;1.13;;
45522;SDS011;31254;51.680;5.394;2023-02-03T05:03:47;5.85;;;1.15;;
45522;SDS011;31254;51.680;5.394;2023-02-03T05:06:14;4.57;;;0.80;;
45522;SDS011;31254;51.680;5.394;2023-02-03T05:08:43;9.73;;;1.27;;
45522;SDS011;31254;51.680;5.394;2023-02-03T05:11:10;9.57;;;0.93;;
45522;SDS011;31254;51.680;5.394;2023-02-03T05:13:36;6.97;;;1.00;;
45522;SDS011;31254;51.680;5.394;2023-02-03T05:16:05;4.57;;;1.08;;
45522;SDS011;31254;51.680;5.394;2023-02-03T05:18:32;6.55;;;1.00;;
45522;SDS011;31254;51.680;5.394;2023-02-03T05:21:01;5.18;;;0.90;;
45522;SDS011;31254;51.680;5.394;2023-02-03T05:23:27;4.63;;;1.05;;
45522;SDS011;31254;51.680;5.394;2023-02-03T05:25:54;6.30;;;2.15;;
45522;SDS011;31254;51.680;5.394;2023-02-03T05:28:23;4.07;;;0.98;;
45522;SDS011;31254;51.680;5.394;2023-02-03T05:30:49;4.78;;;1.13;;
45522;SDS011;31254;51.680;5.394;2023-02-03T05:33:16;7.45;;;1.20;;
45522;SDS011;31254;51.680;5.394;2023-02-03T05:35:43;9.95;;;1.23;;
45522;SDS011;31254;51.680;5.394;2023-02-03T05:38:09;7.00;;;1.02;;
45522;SDS011;31254;51.680;5.394;2023-02-03T05:40:38;8.80;;;0.98;;
45522;SDS011;31254;51.680;5.394;2023-02-03T05:43:23;7.18;;;1.13;;
45522;SDS011;31254;51.680;5.394;2023-02-03T05:45:52;6.40;;;0.90;;
45522;SDS011;31254;51.680;5.394;2023-02-03T05:48:19;5.28;;;1.08;;
45522;SDS011;31254;51.680;5.394;2023-02-03T05:50:46;6.55;;;1.20;;
45522;SDS011;31254;51.680;5.394;2023-02-03T05:53:15;8.85;;;1.25;;
45522;SDS011;31254;51.680;5.394;2023-02-03T05:55:41;6.88;;;1.48;;
45522;SDS011;31254;51.680;5.394;2023-02-03T05:58:08;3.78;;;0.88;;
45522;SDS011;31254;51.680;5.394;2023-02-03T06:00:35;6.30;;;1.20;;
45522;SDS011;31254;51.680;5.394;2023-02-03T06:03:04;6.90;;;1.35;;
45522;SDS011;31254;51.680;5.394;2023-02-03T06:05:35;10.55;;;1.80;;
45522;SDS011;31254;51.680;5.394;2023-02-03T06:08:06;4.80;;;1.05;;
45522;SDS011;31254;51.680;5.394;2023-02-03T06:10:33;7.57;;;1.50;;
45522;SDS011;31254;51.680;5.394;2023-02-03T06:13:13;5.13;;;1.10;;
45522;SDS011;31254;51.680;5.394;2023-02-03T06:15:41;10.55;;;1.23;;
45522;SDS011;31254;51.680;5.394;2023-02-03T06:18:08;7.22;;;1.23;;
45522;SDS011;31254;51.680;5.394;2023-02-03T06:20:36;12.65;;;1.63;;
45522;SDS011;31254;51.680;5.394;2023-02-03T06:23:03;8.38;;;1.10;;
45522;SDS011;31254;51.680;5.394;2023-02-03T06:25:34;7.38;;;1.40;;
45522;SDS011;31254;51.680;5.394;2023-02-03T06:28:01;6.97;;;0.90;;
45522;SDS011;31254;51.680;5.394;2023-02-03T06:30:28;10.55;;;1.60;;
45522;SDS011;31254;51.680;5.394;2023-02-03T06:32:55;5.93;;;1.45;;
45522;SDS011;31254;51.680;5.394;2023-02-03T06:35:22;8.02;;;1.42;;
45522;SDS011;31254;51.680;5.394;2023-02-03T06:37:48;9.27;;;1.30;;
45522;SDS011;31254;51.680;5.394;2023-02-03T06:40:15;4.88;;;1.30;;
45522;SDS011;31254;51.680;5.394;2023-02-03T06:42:45;8.30;;;1.13;;
45522;SDS011;31254;51.680;5.394;2023-02-03T06:45:12;10.75;;;1.60;;
45522;SDS011;31254;51.680;5.394;2023-02-03T06:47:43;7.03;;;1.20;;
45522;SDS011;31254;51.680;5.394;2023-02-03T06:50:13;8.75;;;1.33;;
45522;SDS011;31254;51.680;5.394;2023-02-03T06:52:43;10.52;;;2.08;;
45522;SDS011;31254;51.680;5.394;2023-02-03T06:55:10;5.88;;;1.02;;
45522;SDS011;31254;51.680;5.394;2023-02-03T06:57:43;7.50;;;1.23;;
45522;SDS011;31254;51.680;5.394;2023-02-03T07:00:14;6.43;;;0.90;;
45522;SDS011;31254;51.680;5.394;2023-02-03T07:02:44;8.95;;;1.42;;
45522;SDS011;31254;51.680;5.394;2023-02-03T07:05:11;4.10;;;0.90;;
45522;SDS011;31254;51.680;5.394;2023-02-03T07:07:38;9.95;;;1.20;;
45522;SDS011;31254;51.680;5.394;2023-02-03T07:10:05;8.95;;;1.60;;
45522;SDS011;31254;51.680;5.394;2023-02-03T07:12:34;4.70;;;1.38;;
45522;SDS011;31254;51.680;5.394;2023-02-03T07:15:05;6.25;;;1.40;;
45522;SDS011;31254;51.680;5.394;2023-02-03T07:17:32;10.43;;;1.50;;
45522;SDS011;31254;51.680;5.394;2023-02-03T07:19:58;5.80;;;1.10;;
45522;SDS011;31254;51.680;5.394;2023-02-03T07:22:25;6.25;;;1.95;;
45522;SDS011;31254;51.680;5.394;2023-02-03T07:24:51;7.05;;;1.25;;
45522;SDS011;31254;51.680;5.394;2023-02-03T07:27:18;7.95;;;1.13;;
45522;SDS011;31254;51.680;5.394;2023-02-03T07:29:45;9.55;;;1.67;;
45522;SDS011;31254;51.680;5.394;2023-02-03T07:32:12;7.53;;;2.08;;
45522;SDS011;31254;51.680;5.394;2023-02-03T07:34:38;7.85;;;1.40;;
45522;SDS011;31254;51.680;5.394;2023-02-03T07:37:05;9.80;;;1.38;;
45522;SDS011;31254;51.680;5.394;2023-02-03T07:39:32;9.65;;;1.65;;
45522;SDS011;31254;51.680;5.394;2023-02-03T07:41:59;3.58;;;1.40;;
45522;SDS011;31254;51.680;5.394;2023-02-03T07:44:25;6.45;;;1.35;;
45522;SDS011;31254;51.680;5.394;2023-02-03T07:46:52;7.03;;;1.50;;
45522;SDS011;31254;51.680;5.394;2023-02-03T07:49:21;8.40;;;1.48;;
45522;SDS011;31254;51.680;5.394;2023-02-03T07:51:50;6.28;;;1.58;;
45522;SDS011;31254;51.680;5.394;2023-02-03T07:54:16;8.80;;;1.55;;
45522;SDS011;31254;51.680;5.394;2023-02-03T07:56:43;11.07;;;1.50;;
45522;SDS011;31254;51.680;5.394;2023-02-03T07:59:09;9.45;;;2.05;;
45522;SDS011;31254;51.680;5.394;2023-02-03T08:01:38;5.68;;;1.60;;
45522;SDS011;31254;51.680;5.394;2023-02-03T08:04:05;5.82;;;1.48;;
45522;SDS011;31254;51.680;5.394;2023-02-03T08:06:31;11.80;;;1.85;;
45522;SDS011;31254;51.680;5.394;2023-02-03T08:08:58;7.15;;;1.83;;
45522;SDS011;31254;51.680;5.394;2023-02-03T08:11:25;11.35;;;1.70;;
45522;SDS011;31254;51.680;5.394;2023-02-03T08:13:54;12.30;;;1.98;;
45522;SDS011;31254;51.680;5.394;2023-02-03T08:16:21;12.52;;;1.75;;
45522;SDS011;31254;51.680;5.394;2023-02-03T08:18:47;9.30;;;1.65;;
45522;SDS011;31254;51.680;5.394;2023-02-03T08:21:14;8.75;;;1.63;;
45522;SDS011;31254;51.680;5.394;2023-02-03T08:23:41;9.38;;;2.10;;
45522;SDS011;31254;51.680;5.394;2023-02-03T08:26:09;6.95;;;1.48;;
45522;SDS011;31254;51.680;5.394;2023-02-03T08:28:38;8.57;;;2.00;;
45522;SDS011;31254;51.680;5.394;2023-02-03T08:31:09;9.30;;;1.90;;
45522;SDS011;31254;51.680;5.394;2023-02-03T08:33:37;7.45;;;2.00;;
45522;SDS011;31254;51.680;5.394;2023-02-03T08:36:04;10.48;;;1.73;;
45522;SDS011;31254;51.680;5.394;2023-02-03T08:38:35;11.25;;;1.95;;
45522;SDS011;31254;51.680;5.394;2023-02-03T08:41:12;17.38;;;2.50;;
45522;SDS011;31254;51.680;5.394;2023-02-03T08:43:43;12.80;;;2.00;;
45522;SDS011;31254;51.680;5.394;2023-02-03T08:46:12;16.08;;;2.33;;
45522;SDS011;31254;51.680;5.394;2023-02-03T08:48:39;12.48;;;1.85;;
45522;SDS011;31254;51.680;5.394;2023-02-03T08:51:13;16.52;;;2.05;;
45522;SDS011;31254;51.680;5.394;2023-02-03T08:53:41;13.52;;;1.90;;
45522;SDS011;31254;51.680;5.394;2023-02-03T08:56:12;16.17;;;2.55;;
45522;SDS011;31254;51.680;5.394;2023-02-03T08:58:39;8.70;;;1.80;;
45522;SDS011;31254;51.680;5.394;2023-02-03T09:03:39;11.05;;;1.88;;
45522;SDS011;31254;51.680;5.394;2023-02-03T09:06:08;12.07;;;1.60;;
45522;SDS011;31254;51.680;5.394;2023-02-03T09:08:38;11.52;;;1.92;;
45522;SDS011;31254;51.680;5.394;2023-02-03T09:11:08;11.95;;;1.60;;
45522;SDS011;31254;51.680;5.394;2023-02-03T09:13:36;9.65;;;1.70;;
45522;SDS011;31254;51.680;5.394;2023-02-03T09:16:07;10.85;;;2.38;;
45522;SDS011;31254;51.680;5.394;2023-02-03T09:18:34;18.73;;;2.28;;
45522;SDS011;31254;51.680;5.394;2023-02-03T09:21:01;13.32;;;1.85;;
45522;SDS011;31254;51.680;5.394;2023-02-03T09:23:32;10.70;;;2.05;;
45522;SDS011;31254;51.680;5.394;2023-02-03T09:26:02;9.68;;;1.70;;
45522;SDS011;31254;51.680;5.394;2023-02-03T09:28:30;18.17;;;2.63;;
45522;SDS011;31254;51.680;5.394;2023-02-03T09:31:00;12.15;;;2.05;;
45522;SDS011;31254;51.680;5.394;2023-02-03T09:33:28;10.70;;;2.03;;
45522;SDS011;31254;51.680;5.394;2023-02-03T09:35:56;13.50;;;2.10;;
45522;SDS011;31254;51.680;5.394;2023-02-03T09:38:23;9.20;;;1.90;;
45522;SDS011;31254;51.680;5.394;2023-02-03T09:40:52;11.90;;;2.75;;
45522;SDS011;31254;51.680;5.394;2023-02-03T09:46:12;12.98;;;2.22;;
45522;SDS011;31254;51.680;5.394;2023-02-03T09:48:56;16.00;;;2.45;;
45522;SDS011;31254;51.680;5.394;2023-02-03T09:51:31;14.93;;;1.85;;
45522;SDS011;31254;51.680;5.394;2023-02-03T09:54:12;13.18;;;1.83;;
45522;SDS011;31254;51.680;5.394;2023-02-03T09:56:51;13.88;;;2.33;;
45522;SDS011;31254;51.680;5.394;2023-02-03T09:59:21;10.55;;;1.77;;
45522;SDS011;31254;51.680;5.394;2023-02-03T10:07:10;10.10;;;1.92;;
45522;SDS011;31254;51.680;5.394;2023-02-03T10:10:06;11.00;;;1.75;;
45522;SDS011;31254;51.680;5.394;2023-02-03T10:18:09;16.27;;;2.38;;
45522;SDS011;31254;51.680;5.394;2023-02-03T10:20:41;8.00;;;1.50;;
45522;SDS011;31254;51.680;5.394;2023-02-03T10:23:23;15.32;;;1.92;;
45522;SDS011;31254;51.680;5.394;2023-02-03T10:25:55;6.38;;;1.30;;
45522;SDS011;31254;51.680;5.394;2023-02-03T10:28:28;11.95;;;2.08;;
45522;SDS011;31254;51.680;5.394;2023-02-03T10:30:57;12.65;;;2.00;;
45522;SDS011;31254;51.680;5.394;2023-02-03T10:33:27;15.32;;;2.22;;
45522;SDS011;31254;51.680;5.394;2023-02-03T10:36:17;10.80;;;1.90;;
45522;SDS011;31254;51.680;5.394;2023-02-03T10:38:52;18.25;;;2.35;;
45522;SDS011;31254;51.680;5.394;2023-02-03T10:41:26;13.07;;;2.20;;
45522;SDS011;31254;51.680;5.394;2023-02-03T10:43:55;9.40;;;2.13;;
45522;SDS011;31254;51.680;5.394;2023-02-03T10:48:55;9.20;;;2.03;;
45522;SDS011;31254;51.680;5.394;2023-02-03T10:51:23;8.20;;;1.80;;
45522;SDS011;31254;51.680;5.394;2023-02-03T10:53:51;6.72;;;1.63;;
45522;SDS011;31254;51.680;5.394;2023-02-03T10:56:20;10.13;;;1.83;;
45522;SDS011;31254;51.680;5.394;2023-02-03T10:59:21;7.82;;;1.70;;
45522;SDS011;31254;51.680;5.394;2023-02-03T11:01:54;11.32;;;1.88;;
45522;SDS011;31254;51.680;5.394;2023-02-03T11:04:24;13.40;;;2.35;;
45522;SDS011;31254;51.680;5.394;2023-02-03T11:07:03;6.43;;;1.35;;
45522;SDS011;31254;51.680;5.394;2023-02-03T11:09:35;7.13;;;1.70;;
45522;SDS011;31254;51.680;5.394;2023-02-03T11:14:35;9.77;;;2.30;;
45522;SDS011;31254;51.680;5.394;2023-02-03T11:17:16;9.68;;;1.55;;
45522;SDS011;31254;51.680;5.394;2023-02-03T11:19:52;6.47;;;1.42;;
45522;SDS011;31254;51.680;5.394;2023-02-03T11:25:18;12.77;;;1.90;;
45522;SDS011;31254;51.680;5.394;2023-02-03T11:27:47;10.50;;;1.85;;
45522;SDS011;31254;51.680;5.394;2023-02-03T11:30:25;9.13;;;1.48;;
45522;SDS011;31254;51.680;5.394;2023-02-03T11:32:58;11.18;;;2.42;;
45522;SDS011;31254;51.680;5.394;2023-02-03T11:35:27;15.73;;;1.83;;
45522;SDS011;31254;51.680;5.394;2023-02-03T11:37:56;13.40;;;2.38;;
45522;SDS011;31254;51.680;5.394;2023-02-03T11:40:30;9.00;;;2.15;;
45522;SDS011;31254;51.680;5.394;2023-02-03T11:43:15;13.07;;;1.88;;
45522;SDS011;31254;51.680;5.394;2023-02-03T11:45:44;5.20;;;1.25;;
45522;SDS011;31254;51.680;5.394;2023-02-03T11:48:30;11.45;;;1.58;;
45522;SDS011;31254;51.680;5.394;2023-02-03T11:56:43;11.65;;;1.73;;
45522;SDS011;31254;51.680;5.394;2023-02-03T11:59:17;10.75;;;1.75;;
45522;SDS011;31254;51.680;5.394;2023-02-03T12:02:13;8.05;;;1.38;;
45522;SDS011;31254;51.680;5.394;2023-02-03T12:05:09;9.05;;;1.67;;
45522;SDS011;31254;51.680;5.394;2023-02-03T12:08:00;9.43;;;1.70;;
45522;SDS011;31254;51.680;5.394;2023-02-03T12:25:32;6.57;;;1.73;;
45522;SDS011;31254;51.680;5.394;2023-02-03T12:31:11;8.15;;;2.08;;
45522;SDS011;31254;51.680;5.394;2023-02-03T12:33:47;7.90;;;1.75;;
45522;SDS011;31254;51.680;5.394;2023-02-03T12:36:25;8.32;;;1.83;;
45522;SDS011;31254;51.680;5.394;2023-02-03T12:39:02;8.27;;;1.80;;
45522;SDS011;31254;51.680;5.394;2023-02-03T12:41:39;6.28;;;1.90;;
45522;SDS011;31254;51.680;5.394;2023-02-03T12:44:15;10.40;;;2.13;;
45522;SDS011;31254;51.680;5.394;2023-02-03T12:46:43;12.63;;;2.42;;
45522;SDS011;31254;51.680;5.394;2023-02-03T12:52:37;6.97;;;2.05;;
45522;SDS011;31254;51.680;5.394;2023-02-03T12:57:51;8.82;;;1.95;;
45522;SDS011;31254;51.680;5.394;2023-02-03T13:05:23;8.90;;;2.00;;
45522;SDS011;31254;51.680;5.394;2023-02-03T13:08:00;4.75;;;1.45;;
45522;SDS011;31254;51.680;5.394;2023-02-03T13:10:38;7.70;;;1.98;;
45522;SDS011;31254;51.680;5.394;2023-02-03T13:13:15;9.43;;;2.08;;
45522;SDS011;31254;51.680;5.394;2023-02-03T13:15:47;8.05;;;1.67;;
45522;SDS011;31254;51.680;5.394;2023-02-03T13:18:25;6.93;;;1.92;;
45522;SDS011;31254;51.680;5.394;2023-02-03T13:20:54;7.13;;;2.00;;
45522;SDS011;31254;51.680;5.394;2023-02-03T13:23:21;10.00;;;2.00;;
45522;SDS011;31254;51.680;5.394;2023-02-03T13:37:11;6.60;;;1.55;;
45522;SDS011;31254;51.680;5.394;2023-02-03T13:39:50;6.30;;;2.42;;
45522;SDS011;31254;51.680;5.394;2023-02-03T13:42:26;8.35;;;1.55;;
45522;SDS011;31254;51.680;5.394;2023-02-03T13:48:19;13.38;;;1.85;;
45522;SDS011;31254;51.680;5.394;2023-02-03T13:50:50;6.68;;;1.48;;
45522;SDS011;31254;51.680;5.394;2023-02-03T13:53:47;8.35;;;1.92;;
45522;SDS011;31254;51.680;5.394;2023-02-03T13:56:20;6.65;;;1.63;;
45522;SDS011;31254;51.680;5.394;2023-02-03T14:01:34;8.23;;;1.55;;
45522;SDS011;31254;51.680;5.394;2023-02-03T14:04:51;4.03;;;1.60;;
45522;SDS011;31254;51.680;5.394;2023-02-03T14:06:55;9.90;;;1.90;;
45522;SDS011;31254;51.680;5.394;2023-02-03T14:14:54;6.30;;;1.60;;
45522;SDS011;31254;51.680;5.394;2023-02-03T14:23:07;9.43;;;1.65;;
45522;SDS011;31254;51.680;5.394;2023-02-03T14:25:41;8.35;;;2.30;;
45522;SDS011;31254;51.680;5.394;2023-02-03T14:28:16;6.43;;;1.98;;
45522;SDS011;31254;51.680;5.394;2023-02-03T14:33:44;9.13;;;2.20;;
45522;SDS011;31254;51.680;5.394;2023-02-03T14:38:53;11.15;;;2.42;;
45522;SDS011;31254;51.680;5.394;2023-02-03T14:41:24;4.88;;;1.33;;
45522;SDS011;31254;51.680;5.394;2023-02-03T14:43:59;8.43;;;2.08;;
45522;SDS011;31254;51.680;5.394;2023-02-03T14:47:10;8.45;;;2.10;;
45522;SDS011;31254;51.680;5.394;2023-02-03T14:49:43;11.93;;;2.40;;
45522;SDS011;31254;51.680;5.394;2023-02-03T14:57:40;16.23;;;2.75;;
45522;SDS011;31254;51.680;5.394;2023-02-03T15:13:48;12.15;;;2.38;;
45522;SDS011;31254;51.680;5.394;2023-02-03T15:16:17;16.92;;;3.42;;
45522;SDS011;31254;51.680;5.394;2023-02-03T15:18:52;14.95;;;2.95;;
45522;SDS011;31254;51.680;5.394;2023-02-03T15:21:20;16.25;;;2.70;;
45522;SDS011;31254;51.680;5.394;2023-02-03T15:23:47;12.10;;;2.20;;
45522;SDS011;31254;51.680;5.394;2023-02-03T15:26:15;13.30;;;3.38;;
45522;SDS011;31254;51.680;5.394;2023-02-03T15:29:16;9.07;;;2.45;;
45522;SDS011;31254;51.680;5.394;2023-02-03T15:34:06;11.02;;;2.38;;
45522;SDS011;31254;51.680;5.394;2023-02-03T15:36:48;13.32;;;2.05;;
45522;SDS011;31254;51.680;5.394;2023-02-03T15:42:05;10.50;;;2.40;;
45522;SDS011;31254;51.680;5.394;2023-02-03T15:44:38;9.05;;;2.97;;
45522;SDS011;31254;51.680;5.394;2023-02-03T15:47:19;11.07;;;2.20;;
45522;SDS011;31254;51.680;5.394;2023-02-03T15:49:56;13.90;;;2.92;;
45522;SDS011;31254;51.680;5.394;2023-02-03T15:52:31;14.48;;;2.40;;
45522;SDS011;31254;51.680;5.394;2023-02-03T15:55:05;10.80;;;2.33;;
45522;SDS011;31254;51.680;5.394;2023-02-03T15:57:44;14.52;;;2.60;;
45522;SDS011;31254;51.680;5.394;2023-02-03T16:00:22;15.25;;;2.40;;
45522;SDS011;31254;51.680;5.394;2023-02-03T16:02:52;11.57;;;2.13;;
45522;SDS011;31254;51.680;5.394;2023-02-03T16:05:23;15.13;;;2.75;;
45522;SDS011;31254;51.680;5.394;2023-02-03T16:07:50;12.40;;;2.28;;
45522;SDS011;31254;51.680;5.394;2023-02-03T16:10:24;13.30;;;2.45;;
45522;SDS011;31254;51.680;5.394;2023-02-03T16:12:51;17.60;;;2.53;;
45522;SDS011;31254;51.680;5.394;2023-02-03T16:15:22;13.70;;;2.38;;
45522;SDS011;31254;51.680;5.394;2023-02-03T16:17:55;11.77;;;2.78;;
45522;SDS011;31254;51.680;5.394;2023-02-03T16:20:25;14.60;;;2.05;;
45522;SDS011;31254;51.680;5.394;2023-02-03T16:23:02;11.65;;;2.47;;
45522;SDS011;31254;51.680;5.394;2023-02-03T16:25:59;10.82;;;2.17;;
45522;SDS011;31254;51.680;5.394;2023-02-03T16:28:30;16.15;;;2.63;;
45522;SDS011;31254;51.680;5.394;2023-02-03T16:31:17;20.33;;;2.80;;
45522;SDS011;31254;51.680;5.394;2023-02-03T16:37:00;13.50;;;2.80;;
45522;SDS011;31254;51.680;5.394;2023-02-03T16:39:45;15.00;;;2.80;;
45522;SDS011;31254;51.680;5.394;2023-02-03T16:42:35;11.95;;;3.17;;
45522;SDS011;31254;51.680;5.394;2023-02-03T16:45:22;17.75;;;3.17;;
45522;SDS011;31254;51.680;5.394;2023-02-03T16:48:09;17.05;;;3.40;;
45522;SDS011;31254;51.680;5.394;2023-02-03T16:50:55;13.95;;;3.58;;
45522;SDS011;31254;51.680;5.394;2023-02-03T16:53:28;12.98;;;3.60;;
45522;SDS011;31254;51.680;5.394;2023-02-03T16:55:57;14.57;;;2.90;;
45522;SDS011;31254;51.680;5.394;2023-02-03T16:58:25;18.20;;;3.00;;
45522;SDS011;31254;51.680;5.394;2023-02-03T17:00:52;13.40;;;3.17;;
45522;SDS011;31254;51.680;5.394;2023-02-03T17:03:25;17.15;;;3.35;;
45522;SDS011;31254;51.680;5.394;2023-02-03T17:05:53;14.23;;;3.15;;
45522;SDS011;31254;51.680;5.394;2023-02-03T17:08:22;17.27;;;3.00;;
45522;SDS011;31254;51.680;5.394;2023-02-03T17:10:50;11.68;;;2.90;;
45522;SDS011;31254;51.680;5.394;2023-02-03T17:13:18;12.20;;;3.28;;
45522;SDS011;31254;51.680;5.394;2023-02-03T17:15:48;14.48;;;3.08;;
45522;SDS011;31254;51.680;5.394;2023-02-03T17:18:18;9.68;;;2.17;;
45522;SDS011;31254;51.680;5.394;2023-02-03T17:20:45;11.13;;;2.78;;
45522;SDS011;31254;51.680;5.394;2023-02-03T17:23:14;12.27;;;2.88;;
45522;SDS011;31254;51.680;5.394;2023-02-03T17:25:45;13.05;;;3.65;;
45522;SDS011;31254;51.680;5.394;2023-02-03T17:28:14;16.90;;;3.10;;
45522;SDS011;31254;51.680;5.394;2023-02-03T17:30:41;15.95;;;3.38;;
45522;SDS011;31254;51.680;5.394;2023-02-03T17:33:10;25.33;;;3.97;;
45522;SDS011;31254;51.680;5.394;2023-02-03T17:35:41;11.60;;;2.78;;
45522;SDS011;31254;51.680;5.394;2023-02-03T17:38:09;13.13;;;3.28;;